Time;durP1;ratioP1;P1;durP2;ratioP2;P2;SDS_P1;SDS_P2;PMS_P1;PMS_P2;Temp;Humidity;BMP_temperature;BMP_pressure;BME280_temperature;BME280_humidity;BME280_pressure;Samples;Min_cycle;Max_cycle;Signal;HPM_P1;HPM_P2
2021/08/24 00:02:12;;;;;;;;;;;;;;;-144.99;84.17;52321.72;5002662;28;19992;-76
2021/08/24 00:04:38;;;;;;;;;;;;;;;-144.99;84.12;52329.88;5012544;28;20003;-77
2021/08/24 00:07:05;;;;;;;;;;;;;;;-144.99;84.27;52372.69;5011645;28;19982;-76
2021/08/24 00:09:32;;;;;;;;;;;;;;;-144.99;84.32;52317.66;5020432;28;20080;-76
2021/08/24 00:11:59;;;;;;;;;;;;;;;-144.99;84.43;52325.81;5012489;28;20082;-75
2021/08/24 00:14:25;;;;;;;;;;;;;;;-144.99;84.69;52325.81;5012493;28;20031;-76
2021/08/24 00:16:53;;;;;;;;;;;;;;;-144.99;85.17;52329.88;5013258;28;19991;-76
2021/08/24 00:19:20;;;;;;;;;;;;;;;-144.99;85.40;52317.66;5013995;28;19989;-75
2021/08/24 00:21:46;;;;;;;;;;;;;;;-144.99;85.41;52354.34;5017637;28;20046;-74
2021/08/24 00:24:13;;;;;;;;;;;;;;;-144.99;85.59;52317.66;5011972;28;19993;-75
2021/08/24 00:26:39;;;;;;;;;;;;;;;-144.99;85.99;52329.88;5013546;28;20066;-75
2021/08/24 00:29:06;;;;;;;;;;;;;;;-144.99;86.15;52358.41;5010660;28;19980;-74
2021/08/24 00:31:33;;;;;;;;;;;;;;;-144.99;86.17;52301.34;5010337;28;20002;-75
2021/08/24 00:34:00;;;;;;;;;;;;;;;-144.99;86.31;52315.59;5020381;28;19980;-75
2021/08/24 00:36:27;;;;;;;;;;;;;;;-144.99;86.50;52293.19;5019490;28;20443;-76
2021/08/24 00:38:53;;;;;;;;;;;;;;;-144.99;86.67;52342.09;5020232;28;20062;-74
2021/08/24 00:41:20;;;;;;;;;;;;;;;-144.99;86.62;52338.03;5011562;28;19995;-74
2021/08/24 00:43:47;;;;;;;;;;;;;;;-144.99;87.11;52364.53;5011564;28;20067;-74
2021/08/24 00:46:15;;;;;;;;;;;;;;;-144.99;87.14;52329.88;5011814;28;20029;-75
2021/08/24 00:48:43;;;;;;;;;;;;;;;-144.99;87.41;52342.09;5011832;28;20062;-74
2021/08/24 00:51:12;;;;;;;;;;;;;;;-144.99;87.51;52333.94;5012185;28;20031;-75
2021/08/24 00:53:39;;;;;;;;;;;;;;;-144.99;87.53;52323.75;5015784;28;19990;-77
2021/08/24 00:56:06;;;;;;;;;;;;;;;-144.99;87.51;52276.88;5012503;28;20063;-76
2021/08/24 00:58:33;;;;;;;;;;;;;;;-144.99;87.22;52329.88;5014225;28;20026;-76
2021/08/24 01:01:00;;;;;;;;;;;;;;;-144.99;87.25;52340.06;5012289;28;19997;-76
2021/08/24 01:03:30;;;;;;;;;;;;;;;-144.99;87.23;52325.81;5010367;28;19984;-76
2021/08/24 01:06:02;;;;;;;;;;;;;;;-144.99;87.41;52354.34;5009087;28;19988;-77
2021/08/24 01:08:40;;;;;;;;;;;;;;;-144.99;87.65;52366.56;5014206;28;19973;-79
2021/08/24 01:11:11;;;;;;;;;;;;;;;-144.99;87.90;52333.94;5016779;28;20450;-81
2021/08/24 01:13:40;;;;;;;;;;;;;;;-144.99;88.13;52313.56;5014542;28;20077;-79
2021/08/24 01:16:13;;;;;;;;;;;;;;;-144.99;88.42;52289.13;5014962;28;20003;-78
2021/08/24 01:18:42;;;;;;;;;;;;;;;-144.99;88.27;52333.94;5021591;28;20075;-78
2021/08/24 01:21:29;;;;;;;;;;;;;;;-144.99;88.41;52338.03;5025793;28;20511;-77
2021/08/24 01:24:01;;;;;;;;;;;;;;;-144.99;88.46;52346.19;5018356;28;19995;-80
2021/08/24 01:26:31;;;;;;;;;;;;;;;-144.99;88.90;52325.81;5031646;28;19976;-79
2021/08/24 01:29:18;;;;;;;;;;;;;;;-144.99;89.07;52374.72;5032404;28;19980;-79
2021/08/24 01:32:02;;;;;;;;;;;;;;;-144.99;89.13;52325.81;5032429;28;20019;-80
2021/08/24 01:34:39;;;;;;;;;;;;;;;-144.99;89.42;52321.72;5037484;28;19988;-78
2021/08/24 01:37:10;;;;;;;;;;;;;;;-144.99;89.44;52384.91;5029923;28;20037;-77
2021/08/24 01:39:40;;;;;;;;;;;;;;;-144.99;89.50;52338.03;5033322;28;19986;-77
2021/08/24 01:42:09;;;;;;;;;;;;;;;-144.99;89.13;52362.50;5023482;28;19980;-77
2021/08/24 01:44:38;;;;;;;;;;;;;;;-144.99;89.39;52317.66;5024197;28;20282;-77
2021/08/24 01:47:06;;;;;;;;;;;;;;;-144.99;89.53;52321.72;5018414;28;19981;-75
2021/08/24 01:49:35;;;;;;;;;;;;;;;-144.99;89.79;52344.16;5017429;28;19994;-76
2021/08/24 01:52:03;;;;;;;;;;;;;;;-144.99;89.55;52333.94;5017410;28;20035;-76
2021/08/24 01:54:33;;;;;;;;;;;;;;;-144.99;89.42;52342.09;5018298;28;19979;-76
2021/08/24 01:57:00;;;;;;;;;;;;;;;-144.99;89.95;52358.41;5030507;28;20070;-76
2021/08/24 01:59:30;;;;;;;;;;;;;;;-144.99;89.94;52366.56;5017121;28;20015;-76
2021/08/24 02:02:00;;;;;;;;;;;;;;;-144.99;90.16;52329.88;5005828;28;20082;-76
2021/08/24 02:04:29;;;;;;;;;;;;;;;-144.99;90.45;52362.50;5015222;28;20079;-75
2021/08/24 02:06:57;;;;;;;;;;;;;;;-144.99;90.34;52342.09;5015577;28;20044;-76
2021/08/24 02:09:27;;;;;;;;;;;;;;;-144.99;90.56;52315.59;5025698;28;19975;-75
2021/08/24 02:11:56;;;;;;;;;;;;;;;-144.99;90.55;52350.25;5017905;28;20049;-75
2021/08/24 02:14:23;;;;;;;;;;;;;;;-144.99;90.51;52348.22;5018323;28;20029;-75
2021/08/24 02:16:51;;;;;;;;;;;;;;;-144.99;90.69;52321.72;5020118;28;20032;-75
2021/08/24 02:19:21;;;;;;;;;;;;;;;-144.99;90.70;52356.38;5018084;28;20455;-75
2021/08/24 02:21:50;;;;;;;;;;;;;;;-144.99;90.93;52338.03;5021831;28;20337;-75
2021/08/24 02:24:19;;;;;;;;;;;;;;;-144.99;91.05;52336.00;5017460;28;19993;-75
2021/08/24 02:26:47;;;;;;;;;;;;;;;-144.99;91.04;52348.22;5019280;28;19982;-75
2021/08/24 02:29:15;;;;;;;;;;;;;;;-144.99;91.12;52333.94;5017315;28;20074;-74
2021/08/24 02:31:44;;;;;;;;;;;;;;;-144.99;91.09;52342.09;5016793;28;20043;-76
2021/08/24 02:34:15;;;;;;;;;;;;;;;-144.99;91.23;52303.38;5021910;28;19963;-76
2021/08/24 02:36:47;;;;;;;;;;;;;;;-144.99;91.56;52346.19;5022127;28;19973;-77
2021/08/24 02:39:17;;;;;;;;;;;;;;;-144.99;91.95;52313.56;5020236;28;19986;-77
2021/08/24 02:41:46;;;;;;;;;;;;;;;-144.99;92.19;52317.66;5013852;28;20031;-77
2021/08/24 02:44:15;;;;;;;;;;;;;;;-144.99;92.25;52338.03;5013760;28;20011;-76
2021/08/24 02:46:46;;;;;;;;;;;;;;;-144.99;92.46;52342.09;5012825;28;20393;-76
2021/08/24 02:49:14;;;;;;;;;;;;;;;-144.99;92.75;52350.25;5012470;28;19980;-76
2021/08/24 02:51:40;;;;;;;;;;;;;;;-144.99;92.70;52348.22;5012612;28;20359;-76
2021/08/24 02:54:08;;;;;;;;;;;;;;;-144.99;93.29;52342.09;5013335;28;20043;-76
2021/08/24 02:56:35;;;;;;;;;;;;;;;-144.99;93.21;52321.72;5013889;28;20021;-76
2021/08/24 02:59:01;;;;;;;;;;;;;;;-144.99;93.26;52354.34;5013340;28;19981;-76
2021/08/24 03:01:27;;;;;;;;;;;;;;;-144.99;93.48;52329.88;5013735;28;19990;-76
2021/08/24 03:03:55;;;;;;;;;;;;;;;-144.99;93.18;52362.50;5016403;28;20560;-77
2021/08/24 03:06:22;;;;;;;;;;;;;;;-144.99;93.08;52388.97;5011658;28;19979;-79
2021/08/24 03:08:49;;;;;;;;;;;;;;;-144.99;93.29;52319.69;5012039;28;20015;-76
2021/08/24 03:11:18;;;;;;;;;;;;;;;-144.99;93.56;52395.09;5012189;28;20489;-77
2021/08/24 03:13:49;;;;;;;;;;;;;;;-144.99;93.32;52374.72;5011921;28;19981;-76
2021/08/24 03:16:18;;;;;;;;;;;;;;;-144.99;93.58;52362.50;5011822;28;19983;-77
2021/08/24 03:18:46;;;;;;;;;;;;;;;-144.99;93.47;52321.72;5015037;28;20443;-76
2021/08/24 03:21:16;;;;;;;;;;;;;;;-144.99;93.70;52338.03;5016661;28;20070;-77
2021/08/24 03:23:43;;;;;;;;;;;;;;;-144.99;93.57;52329.88;5012019;28;20023;-76
2021/08/24 03:26:10;;;;;;;;;;;;;;;-144.99;93.75;52336.00;5011606;28;20054;-77
2021/08/24 03:28:40;;;;;;;;;;;;;;;-144.99;94.06;52329.88;5011022;28;20404;-76
2021/08/24 03:31:06;;;;;;;;;;;;;;;-144.99;94.06;52317.66;5009094;28;20478;-76
2021/08/24 03:33:32;;;;;;;;;;;;;;;-144.99;93.98;52336.00;5020492;28;19980;-77
2021/08/24 03:35:59;;;;;;;;;;;;;;;-144.99;94.28;52382.88;5017767;28;20673;-77
2021/08/24 03:38:27;;;;;;;;;;;;;;;-144.99;94.60;52309.50;5022706;28;20206;-78
2021/08/24 03:40:53;;;;;;;;;;;;;;;-144.99;94.64;52333.94;5011894;28;20036;-78
2021/08/24 03:43:20;;;;;;;;;;;;;;;-144.99;94.79;52358.41;5012191;28;20079;-77
2021/08/24 03:45:46;;;;;;;;;;;;;;;-144.99;94.86;52354.34;5011254;28;19981;-78
2021/08/24 03:48:12;;;;;;;;;;;;;;;-144.99;95.08;52342.09;5012860;28;19977;-77
2021/08/24 03:50:39;;;;;;;;;;;;;;;-144.99;95.21;52348.22;5013052;28;20000;-77
2021/08/24 03:53:05;;;;;;;;;;;;;;;-144.99;95.33;52378.78;5011999;28;20226;-77
2021/08/24 03:55:33;;;;;;;;;;;;;;;-144.99;95.20;52354.34;5019772;28;19972;-75
2021/08/24 03:57:59;;;;;;;;;;;;;;;-144.99;95.58;52350.25;5015667;28;20086;-77
2021/08/24 04:00:26;;;;;;;;;;;;;;;-144.99;95.89;52325.81;5004667;28;19998;-78
2021/08/24 04:02:52;;;;;;;;;;;;;;;-144.99;95.70;52317.66;5007560;28;19986;-77
2021/08/24 04:05:19;;;;;;;;;;;;;;;-144.99;95.95;52329.88;5019577;28;19979;-77
2021/08/24 04:07:46;;;;;;;;;;;;;;;-144.99;96.15;52336.00;5012406;28;20481;-78
2021/08/24 04:10:13;;;;;;;;;;;;;;;-144.99;96.20;52338.03;5017243;28;20437;-78
2021/08/24 04:12:41;;;;;;;;;;;;;;;-144.99;96.31;52321.72;5011248;28;19986;-78
2021/08/24 04:15:09;;;;;;;;;;;;;;;-144.99;96.54;52346.19;5011241;28;19982;-78
2021/08/24 04:17:36;;;;;;;;;;;;;;;-144.99;96.63;52356.38;5013778;28;19978;-75
2021/08/24 04:20:02;;;;;;;;;;;;;;;-144.99;96.50;52350.25;5013903;28;19995;-68
2021/08/24 04:22:29;;;;;;;;;;;;;;;-144.99;96.70;52321.72;5011940;28;20023;-69
2021/08/24 04:24:55;;;;;;;;;;;;;;;-144.99;97.07;52342.09;5010305;28;19996;-68
2021/08/24 04:27:22;;;;;;;;;;;;;;;-144.99;97.69;52362.50;5010351;28;20003;-68
2021/08/24 04:29:50;;;;;;;;;;;;;;;-144.99;97.70;52346.19;5009682;28;19972;-69
2021/08/24 04:32:18;;;;;;;;;;;;;;;-144.99;97.72;52358.41;5009914;28;19975;-68
2021/08/24 04:34:44;;;;;;;;;;;;;;;-144.99;97.56;52317.66;5017438;28;20064;-69
2021/08/24 04:37:11;;;;;;;;;;;;;;;-144.99;97.51;52374.72;5017847;28;19976;-69
2021/08/24 04:39:37;;;;;;;;;;;;;;;-144.99;97.71;52354.34;5010421;28;19986;-69
2021/08/24 04:42:04;;;;;;;;;;;;;;;-144.99;97.81;52329.88;5009005;28;20377;-69
2021/08/24 04:44:30;;;;;;;;;;;;;;;-144.99;97.76;52317.66;5010913;28;20493;-69
2021/08/24 04:46:58;;;;;;;;;;;;;;;-144.99;98.13;52321.72;5011170;28;19987;-70
2021/08/24 04:49:24;;;;;;;;;;;;;;;-144.99;98.11;52301.34;5010835;28;20080;-68
2021/08/24 04:51:51;;;;;;;;;;;;;;;-144.99;97.73;52333.94;5009236;28;20001;-70
2021/08/24 04:54:18;;;;;;;;;;;;;;;-144.99;97.81;52344.16;5041221;23;20001;-76
2021/08/24 04:56:44;;;;;;;;;;;;;;;-144.99;97.90;52329.88;5026534;28;19976;-78
2021/08/24 04:59:11;;;;;;;;;;;;;;;-144.99;97.94;52354.34;5050773;28;19993;-78
2021/08/24 05:01:37;;;;;;;;;;;;;;;-144.99;97.69;52336.00;5025764;28;19976;-77
2021/08/24 05:04:05;;;;;;;;;;;;;;;-144.99;97.61;52317.66;5034643;28;20023;-78
2021/08/24 05:06:32;;;;;;;;;;;;;;;-144.99;97.44;52303.38;5041408;28;20004;-78
2021/08/24 05:08:58;;;;;;;;;;;;;;;-144.99;97.27;52321.72;5037844;28;20397;-79
2021/08/24 05:11:24;;;;;;;;;;;;;;;-144.99;96.90;52266.69;4331733;28;9999959;-78
2021/08/24 05:13:51;;;;;;;;;;;;;;;-144.99;96.74;52315.59;5027212;28;19996;-78
2021/08/24 05:16:18;;;;;;;;;;;;;;;-144.99;96.31;52323.75;5026898;28;20019;-78
2021/08/24 05:18:44;;;;;;;;;;;;;;;-144.99;95.98;52321.72;5030002;28;19979;-77
2021/08/24 05:21:13;;;;;;;;;;;;;;;-144.99;95.54;52289.13;5032827;28;20011;-78
2021/08/24 05:23:40;;;;;;;;;;;;;;;-144.99;95.16;52289.13;5027504;28;20008;-78
2021/08/24 05:26:06;;;;;;;;;;;;;;;-144.99;94.88;52252.44;5027600;28;19985;-75
2021/08/24 05:28:33;;;;;;;;;;;;;;;-144.99;94.58;52307.47;5026699;28;19991;-74
2021/08/24 05:30:59;;;;;;;;;;;;;;;-144.99;94.19;52301.34;5024930;28;19984;-72
2021/08/24 05:33:25;;;;;;;;;;;;;;;-144.99;93.83;52276.88;5032706;28;20078;-74
2021/08/24 05:35:52;;;;;;;;;;;;;;;-144.99;93.71;52325.81;5030697;28;20202;-74
2021/08/24 05:38:20;;;;;;;;;;;;;;;-144.99;93.38;52305.41;5037039;28;20221;-74
2021/08/24 05:40:46;;;;;;;;;;;;;;;-144.99;93.01;52311.53;5025479;28;19929;-74
2021/08/24 05:43:12;;;;;;;;;;;;;;;-144.99;92.78;52301.34;5026185;28;20465;-77
2021/08/24 05:45:39;;;;;;;;;;;;;;;-144.99;92.31;52289.13;5025296;28;20000;-73
2021/08/24 05:48:05;;;;;;;;;;;;;;;-144.99;91.96;52272.81;5024828;28;19981;-74
2021/08/24 05:50:32;;;;;;;;;;;;;;;-144.99;91.63;52268.72;5025525;28;20387;-73
2021/08/24 05:52:58;;;;;;;;;;;;;;;-144.99;91.38;52309.50;5026704;28;20012;-74
2021/08/24 05:55:26;;;;;;;;;;;;;;;-144.99;90.95;52301.34;5035194;28;20019;-74
2021/08/24 05:57:52;;;;;;;;;;;;;;;-144.99;90.67;52268.72;5034525;28;20473;-75
2021/08/24 06:00:19;;;;;;;;;;;;;;;-144.99;90.13;52297.25;5023972;28;19982;-75
2021/08/24 06:02:46;;;;;;;;;;;;;;;-144.99;89.65;52260.56;5023458;28;19996;-74
2021/08/24 06:05:13;;;;;;;;;;;;;;;-144.99;89.39;52285.03;5028576;28;20001;-74
2021/08/24 06:07:39;;;;;;;;;;;;;;;-144.99;89.16;52291.16;5027509;28;19987;-74
2021/08/24 06:10:07;;;;;;;;;;;;;;;-144.99;88.81;52262.63;5029049;28;20463;-75
2021/08/24 06:12:35;;;;;;;;;;;;;;;-144.99;87.72;52285.03;5026719;28;20043;-77
2021/08/24 06:15:02;;;;;;;;;;;;;;;-144.99;87.23;52248.34;5029110;28;20340;-76
2021/08/24 06:17:28;;;;;;;;;;;;;;;-144.99;87.04;52303.38;5032026;28;20097;-76
2021/08/24 06:19:55;;;;;;;;;;;;;;;-144.99;86.41;52311.53;5031053;28;20086;-78
2021/08/24 06:22:21;;;;;;;;;;;;;;;-144.99;86.09;52285.03;5031967;28;19982;-76
2021/08/24 06:24:47;;;;;;;;;;;;;;;-144.99;85.68;52272.81;5028883;28;20510;-77
2021/08/24 06:27:14;;;;;;;;;;;;;;;-144.99;85.28;52238.16;5028779;28;19988;-76
2021/08/24 06:29:41;;;;;;;;;;;;;;;-144.99;84.84;52223.88;5032132;28;19977;-76
2021/08/24 06:32:18;;;;;;;;;;;;;;;-144.99;84.49;52244.28;5030680;28;20458;-78
2021/08/24 06:34:45;;;;;;;;;;;;;;;-144.99;83.87;52246.31;5021596;28;20011;-77
2021/08/24 06:37:11;;;;;;;;;;;;;;;-144.99;83.02;52280.97;5036400;28;19981;-77
2021/08/24 06:39:38;;;;;;;;;;;;;;;-144.99;82.42;52270.78;5028625;28;20016;-77
2021/08/24 06:42:05;;;;;;;;;;;;;;;-144.99;82.00;52283.00;5028518;28;20084;-78
2021/08/24 06:44:31;;;;;;;;;;;;;;;-144.99;81.79;52264.66;5028204;28;20461;-76
2021/08/24 06:46:59;;;;;;;;;;;;;;;-144.99;81.44;52223.88;5028505;28;19981;-77
2021/08/24 06:49:25;;;;;;;;;;;;;;;-144.99;81.15;52211.66;5028368;28;20000;-77
2021/08/24 06:51:52;;;;;;;;;;;;;;;-144.99;80.85;52248.34;5028082;28;19982;-77
2021/08/24 06:54:18;;;;;;;;;;;;;;;-144.99;80.59;52197.41;5028533;28;20007;-77
2021/08/24 06:56:45;;;;;;;;;;;;;;;-144.99;79.91;52276.88;5040438;28;19951;-78
2021/08/24 06:59:13;;;;;;;;;;;;;;;-144.99;79.90;52262.63;5026975;28;19984;-77
2021/08/24 07:01:39;;;;;;;;;;;;;;;-144.99;79.56;52201.47;5017473;28;20386;-77
2021/08/24 07:04:07;;;;;;;;;;;;;;;-144.99;79.16;52280.97;5026911;28;20177;-77
2021/08/24 07:06:34;;;;;;;;;;;;;;;-144.99;78.81;52219.81;5026750;28;20460;-77
2021/08/24 07:09:00;;;;;;;;;;;;;;;-144.99;78.63;52187.19;5027920;28;19985;-76
2021/08/24 07:11:27;;;;;;;;;;;;;;;-144.99;78.46;52240.19;5026734;28;20118;-77
2021/08/24 07:13:55;;;;;;;;;;;;;;;-144.99;78.15;52227.97;5027239;28;20107;-76
2021/08/24 07:16:21;;;;;;;;;;;;;;;-144.99;78.14;52236.13;5027447;28;19994;-79
2021/08/24 07:18:48;;;;;;;;;;;;;;;-144.99;77.87;52240.19;5030504;28;19980;-79
2021/08/24 07:21:17;;;;;;;;;;;;;;;-144.99;77.78;52199.44;5032499;28;20380;-78
2021/08/24 07:23:44;;;;;;;;;;;;;;;-144.99;77.34;52211.66;5027856;28;20000;-79
2021/08/24 07:26:10;;;;;;;;;;;;;;;-144.99;76.80;52221.84;5027067;28;20083;-77
2021/08/24 07:28:36;;;;;;;;;;;;;;;-144.99;75.17;52227.97;5028576;28;19990;-77
2021/08/24 07:31:03;;;;;;;;;;;;;;;-144.99;74.57;52207.59;5028326;28;20455;-76
2021/08/24 07:33:29;;;;;;;;;;;;;;;-144.99;73.36;52199.44;5036696;28;19996;-77
2021/08/24 07:35:56;;;;;;;;;;;;;;;-144.99;72.24;52215.75;5033076;28;19980;-76
2021/08/24 07:38:24;;;;;;;;;;;;;;;-144.99;71.76;52203.50;5038294;28;20396;-78
2021/08/24 07:40:50;;;;;;;;;;;;;;;-144.99;71.43;52223.88;5027150;28;19981;-77
2021/08/24 07:43:17;;;;;;;;;;;;;;;-144.99;71.51;52193.31;5027327;28;19996;-77
2021/08/24 07:45:43;;;;;;;;;;;;;;;-144.99;71.49;52215.75;5027306;28;20011;-79
2021/08/24 07:48:10;;;;;;;;;;;;;;;-144.99;70.74;52195.34;5027441;28;20092;-80
2021/08/24 07:50:36;;;;;;;;;;;;;;;-144.99;69.55;52203.50;5026634;28;19994;-77
2021/08/24 07:53:03;;;;;;;;;;;;;;;-144.99;68.77;52158.66;5026205;28;20390;-78
2021/08/24 07:55:31;;;;;;;;;;;;;;;-144.99;67.56;52191.28;5033769;28;20553;-78
2021/08/24 07:57:57;;;;;;;;;;;;;;;-144.99;67.82;52179.06;5031171;28;20351;-77
2021/08/24 08:00:24;;;;;;;;;;;;;;;-144.99;67.92;52179.06;5020909;28;20079;-78
2021/08/24 08:02:50;;;;;;;;;;;;;;;-144.99;67.93;52195.34;5022620;28;19995;-78
2021/08/24 08:05:18;;;;;;;;;;;;;;;-144.99;67.34;52183.13;5034587;28;20525;-78
2021/08/24 08:07:44;;;;;;;;;;;;;;;-144.99;63.94;52179.06;5028191;28;20372;-78
2021/08/24 08:10:11;;;;;;;;;;;;;;;-144.99;63.39;52170.91;5033360;28;19976;-80
2021/08/24 08:12:39;;;;;;;;;;;;;;;-144.99;63.12;52191.28;5023845;28;20127;-77
2021/08/24 08:15:07;;;;;;;;;;;;;;;-144.99;62.83;52166.81;5026948;28;20011;-78
2021/08/24 08:17:33;;;;;;;;;;;;;;;-144.99;62.75;52205.53;5029481;28;19980;-76
2021/08/24 08:19:59;;;;;;;;;;;;;;;-144.99;62.78;52197.41;5029256;28;19989;-79
2021/08/24 08:22:26;;;;;;;;;;;;;;;-144.99;62.60;52191.28;5028209;28;20465;-78
2021/08/24 08:24:53;;;;;;;;;;;;;;;-144.99;61.82;52166.81;5026522;28;20100;-76
2021/08/24 08:27:19;;;;;;;;;;;;;;;-144.99;61.00;52181.09;5026298;28;19925;-79
2021/08/24 08:29:47;;;;;;;;;;;;;;;-144.99;59.83;52195.34;5024362;28;19977;-77
2021/08/24 08:32:15;;;;;;;;;;;;;;;-144.99;59.28;52195.34;5026648;28;19941;-77
2021/08/24 08:34:42;;;;;;;;;;;;;;;-144.99;58.94;52162.75;5034317;28;19935;-78
2021/08/24 08:37:08;;;;;;;;;;;;;;;-144.99;58.72;52166.81;5033113;28;19975;-77
2021/08/24 08:39:35;;;;;;;;;;;;;;;-144.99;57.76;52166.81;5034963;28;20349;-77
2021/08/24 08:42:11;;;;;;;;;;;;;;;-144.99;55.87;52199.44;5026157;28;19959;-77
2021/08/24 08:44:41;;;;;;;;;;;;;;;-144.99;55.76;52195.34;5025954;28;20026;-76
2021/08/24 08:47:14;;;;;;;;;;;;;;;-144.99;56.79;52195.34;5026027;28;19959;-78
2021/08/24 08:49:45;;;;;;;;;;;;;;;-144.99;56.52;52166.81;5025822;28;19983;-77
2021/08/24 08:52:16;;;;;;;;;;;;;;;-144.99;56.63;52174.97;5025866;28;19957;-80
2021/08/24 08:54:55;;;;;;;;;;;;;;;-144.99;56.35;52134.22;5026152;28;20399;-78
2021/08/24 08:57:28;;;;;;;;;;;;;;;-144.99;53.94;52207.59;5035744;28;19974;-79
2021/08/24 08:59:58;;;;;;;;;;;;;;;-144.99;53.78;52146.44;5025224;28;20499;-78
2021/08/24 09:02:32;;;;;;;;;;;;;;;-144.99;53.14;52158.66;5017960;28;20095;-78
2021/08/24 09:05:00;;;;;;;;;;;;;;;-144.99;51.77;52170.91;5032229;28;19962;-78
2021/08/24 09:07:30;;;;;;;;;;;;;;;-144.99;50.95;52134.22;5028747;28;20304;-78
2021/08/24 09:09:57;;;;;;;;;;;;;;;-144.99;50.43;52134.22;5032310;28;19985;-78
2021/08/24 09:12:24;;;;;;;;;;;;;;;-144.99;49.12;52179.06;5022702;28;20069;-77
2021/08/24 09:14:54;;;;;;;;;;;;;;;-144.99;49.04;52126.06;5025691;28;20068;-77
2021/08/24 09:17:24;;;;;;;;;;;;;;;-144.99;50.16;52150.53;5028141;28;19940;-79
2021/08/24 09:19:55;;;;;;;;;;;;;;;-144.99;48.97;52138.28;5027287;28;19975;-77
2021/08/24 09:22:22;;;;;;;;;;;;;;;-144.99;47.82;52183.13;5027833;28;20069;-77
2021/08/24 09:24:49;;;;;;;;;;;;;;;-144.99;47.01;52166.81;5025451;28;19969;-79
2021/08/24 09:27:20;;;;;;;;;;;;;;;-144.99;47.62;52130.13;5026434;28;19948;-77
2021/08/24 09:29:48;;;;;;;;;;;;;;;-144.99;46.14;52115.88;5032157;28;19964;-77
2021/08/24 09:32:18;;;;;;;;;;;;;;;-144.99;46.05;52115.88;5031025;28;19948;-77
2021/08/24 09:34:45;;;;;;;;;;;;;;;-144.99;45.85;52130.13;5036432;28;20428;-77
2021/08/24 09:37:16;;;;;;;;;;;;;;;-144.99;45.62;52109.75;5037436;28;20408;-79
2021/08/24 09:39:48;;;;;;;;;;;;;;;-144.99;45.54;52113.84;5020162;28;20011;-79
2021/08/24 09:42:14;;;;;;;;;;;;;;;-144.99;45.89;52089.38;5029191;28;19964;-77
2021/08/24 09:44:41;;;;;;;;;;;;;;;-144.99;44.97;52113.84;5029120;28;19970;-78
2021/08/24 09:47:15;;;;;;;;;;;;;;;-144.99;44.43;52132.19;5028949;28;20339;-77
2021/08/24 09:49:42;;;;;;;;;;;;;;;-144.99;43.66;52109.75;5029088;28;20031;-76
2021/08/24 09:52:11;;;;;;;;;;;;;;;-144.99;43.37;52142.38;5029361;28;19987;-78
2021/08/24 09:54:40;;;;;;;;;;;;;;;-144.99;43.83;52134.22;5029235;28;19935;-78
2021/08/24 09:57:16;;;;;;;;;;;;;;;-144.99;43.75;52150.53;5017397;28;19937;-75
2021/08/24 09:59:46;;;;;;;;;;;;;;;-144.99;43.93;52146.44;5028371;28;20324;-78
2021/08/24 10:02:28;;;;;;;;;;;;;;;-144.99;44.10;52170.91;5019256;28;19925;-77
2021/08/24 10:04:54;;;;;;;;;;;;;;;-144.99;43.01;52121.97;5034923;28;20085;-78
2021/08/24 10:07:32;;;;;;;;;;;;;;;-144.99;42.86;52130.13;5032016;28;19949;-76
2021/08/24 10:10:00;;;;;;;;;;;;;;;-144.99;43.49;52162.75;5030144;28;19935;-77
2021/08/24 10:12:28;;;;;;;;;;;;;;;-144.99;43.89;52109.75;5026209;28;19979;-78
2021/08/24 10:14:56;;;;;;;;;;;;;;;-144.99;44.08;52121.97;5028940;28;19996;-78
2021/08/24 10:17:27;;;;;;;;;;;;;;;-144.99;44.08;52134.22;5030113;28;19928;-77
2021/08/24 10:19:56;;;;;;;;;;;;;;;-144.99;44.26;52146.44;5030619;28;19967;-77
2021/08/24 10:22:27;;;;;;;;;;;;;;;-144.99;43.39;52121.97;5033153;28;19929;-76
2021/08/24 10:24:56;;;;;;;;;;;;;;;-144.99;42.99;52113.84;5032132;28;20443;-76
2021/08/24 10:27:27;;;;;;;;;;;;;;;-144.99;42.55;52071.03;5030790;28;19924;-78
2021/08/24 10:29:55;;;;;;;;;;;;;;;-144.99;41.67;52097.53;5030054;28;19929;-77
2021/08/24 10:32:24;;;;;;;;;;;;;;;-144.99;41.04;52069.00;5034014;28;19929;-74
2021/08/24 10:34:51;;;;;;;;;;;;;;;-144.99;40.38;52032.31;5022321;28;20353;-75
2021/08/24 10:37:30;;;;;;;;;;;;;;;-144.99;40.41;52050.66;5035204;28;20026;-77
2021/08/24 10:40:15;;;;;;;;;;;;;;;-144.99;39.94;52048.63;5017560;28;20503;-76
2021/08/24 10:42:43;;;;;;;;;;;;;;;-144.99;39.35;51991.56;5028429;28;20180;-78
2021/08/24 10:45:24;;;;;;;;;;;;;;;-144.99;38.85;52003.78;5024661;28;19929;-76
2021/08/24 10:47:51;;;;;;;;;;;;;;;-144.99;38.76;51975.25;5028336;28;19933;-79
2021/08/24 10:50:21;;;;;;;;;;;;;;;-144.99;38.62;51965.06;5025847;28;20019;-77
2021/08/24 10:52:52;;;;;;;;;;;;;;;-144.99;37.99;51950.78;5026208;28;21134;-77
2021/08/24 10:55:21;;;;;;;;;;;;;;;-144.99;36.99;51983.41;5020734;28;20443;-78
2021/08/24 10:57:56;;;;;;;;;;;;;;;-144.99;38.52;52003.78;5033146;28;19989;-76
2021/08/24 11:00:50;;;;;;;;;;;;;;;-144.99;39.29;52036.38;5022244;28;19937;-77
2021/08/24 11:03:40;;;;;;;;;;;;;;;-144.99;39.19;52058.81;4982549;28;19929;-76
2021/08/24 11:06:11;;;;;;;;;;;;;;;-144.99;38.48;52046.56;5019852;28;19933;-77
2021/08/24 11:08:43;;;;;;;;;;;;;;;-144.99;38.09;51938.56;5032347;28;19928;-77
2021/08/24 11:11:16;;;;;;;;;;;;;;;-144.99;37.91;51954.88;5029791;28;19947;-77
2021/08/24 11:13:49;;;;;;;;;;;;;;;-144.99;37.82;52069.00;5027611;28;19925;-76
2021/08/24 11:16:23;;;;;;;;;;;;;;;-144.99;38.26;51967.09;5027643;28;19951;-76
2021/08/24 11:18:50;;;;;;;;;;;;;;;-144.99;38.79;51934.50;5031299;28;19929;-75
2021/08/24 11:21:21;;;;;;;;;;;;;;;-144.99;38.56;52101.59;5032954;28;19931;-74
2021/08/24 11:24:05;;;;;;;;;;;;;;;-144.99;38.43;52044.53;5026827;28;19984;-75
2021/08/24 11:26:34;;;;;;;;;;;;;;;-144.99;38.38;51922.25;5042138;28;19928;-76
2021/08/24 11:29:10;;;;;;;;;;;;;;;-144.99;38.15;51922.25;5026818;28;19929;-75
2021/08/24 11:31:41;;;;;;;;;;;;;;;-144.99;36.88;51910.03;5025410;28;19925;-74
2021/08/24 11:34:10;;;;;;;;;;;;;;;-144.99;36.36;51873.34;5034827;28;20012;-75
2021/08/24 11:36:39;;;;;;;;;;;;;;;-144.99;36.27;51897.81;5017263;28;20408;-74
2021/08/24 11:39:07;;;;;;;;;;;;;;;-144.99;34.78;51918.19;5027481;28;20180;-75
2021/08/24 11:41:36;;;;;;;;;;;;;;;-144.99;36.13;51926.34;5027349;28;19945;-75
2021/08/24 11:44:06;;;;;;;;;;;;;;;-144.99;37.76;51995.63;5027537;28;20372;-74
2021/08/24 11:46:35;;;;;;;;;;;;;;;-144.99;38.05;51950.78;5026697;28;20471;-75
2021/08/24 11:49:04;;;;;;;;;;;;;;;-144.99;37.45;51967.09;5026870;28;19928;-75
2021/08/24 11:51:33;;;;;;;;;;;;;;;-144.99;37.26;51922.25;5026922;28;19925;-74
2021/08/24 11:54:04;;;;;;;;;;;;;;;-144.99;36.71;52097.53;5027037;28;19933;-75
2021/08/24 11:56:36;;;;;;;;;;;;;;;-144.99;37.27;52069.00;5035218;28;20405;-75
2021/08/24 11:59:06;;;;;;;;;;;;;;;-144.99;37.56;52073.06;5026555;28;19929;-74
2021/08/24 12:01:33;;;;;;;;;;;;;;;-144.99;37.26;51922.25;5019508;28;20392;-76
2021/08/24 12:04:03;;;;;;;;;;;;;;;-144.99;36.52;51928.38;5027107;28;19964;-75
2021/08/24 12:06:32;;;;;;;;;;;;;;;-144.99;36.41;51942.63;5026070;28;19925;-74
2021/08/24 12:09:01;;;;;;;;;;;;;;;-144.99;35.58;51918.19;5031364;28;20264;-76
2021/08/24 12:11:40;;;;;;;;;;;;;;;-144.99;34.83;51910.03;5018622;28;19929;-77
2021/08/24 12:14:17;;;;;;;;;;;;;;;-144.99;35.56;51877.44;5026113;28;19995;-76
2021/08/24 12:16:54;;;;;;;;;;;;;;;-144.99;35.14;51946.72;5026600;28;19932;-75
2021/08/24 12:19:21;;;;;;;;;;;;;;;-144.99;33.99;51954.88;5032717;28;19979;-75
2021/08/24 12:21:50;;;;;;;;;;;;;;;-144.99;33.47;51901.88;5036744;28;19933;-74
2021/08/24 12:24:50;;;;;;;;;;;;;;;-144.99;33.25;51918.19;5025852;28;20554;-74
2021/08/24 12:27:36;;;;;;;;;;;;;;;-144.99;33.86;51924.28;4971722;28;20434;-73
2021/08/24 12:30:12;;;;;;;;;;;;;;;-144.99;34.21;51918.19;4952755;28;19932;-74
2021/08/24 12:33:08;;;;;;;;;;;;;;;-144.99;34.54;51934.50;5006099;28;19929;-76
2021/08/24 12:35:38;;;;;;;;;;;;;;;-144.99;34.39;51922.25;4964788;28;19926;-75